This site, now in its 15th season, is a labour of love and fun from one of Ottawa's most avid time trialists and number crunchers. It adheres to and is permitted by the laws of Canada, promotes the objectives of every bicycle club whose results are shown, and is donated free of charge by myself for your enjoyment and usage. If you would like results from series you ride in to be shown here, give me (celia@drmath.ca) a shout!


Index Page
ATT OTT WTT AATT CFCTT VVVTT
Help resultformat:
Case-sensitive

OBC Open TT Series - 1994-Jul-07 - 15km (Rockliffe Pkwy) (EvtFactor = 0.9648)

Weather (18:00): Mostly Cloudy. Temp.: 27.6C, Humidity: 67%, DewPoint: 21.0C, Wind: SSW 6km/h, Pressure: 100.06kPa, Visibility: 12.9km, Humidex: 36.
Weather (19:00): Mostly Cloudy. Temp.: 27.4C, Humidity: 71%, DewPoint: 21.6C, Wind: 0km/h, Pressure: 100.06kPa, Visibility: 16.1km, Humidex: 36.
Weather (20:00): Mostly Cloudy. Temp.: 26.0C, Humidity: 80%, DewPoint: 22.3C, Wind: S 7km/h, Pressure: 100.09kPa, Visibility: 24.1km, Humidex: 36.

Send photos with description (when/where/what) of yourself on or off of bike to celia@drmath.ca

 
 

BESTS?
 
Y 1 Fraser, Gord --- 18:49 47.830 1/78 OSEM 1/30  
2 Large, John --- 19:43 45.647 2/78 OSEM 2/30 1.0861
3 McCutcheon, Drew --- 19:58 45.075 3/78 OSEM 3/30 1.0744
4 Rendall, Glen  --- 20:07 44.739 4/78 OSEM 4/30 1.0557
5 Daniels, Stephen --- 20:27 44.010 5/78 OSEM 5/30  
6 Glover, Jim  OBC 20:37 43.654 6/78 OVAM 1/16 1.0319
7 Bachman, Paul OBC 20:38 43.619 7/78 OSEM 6/30 0.9952
8 Burge, Craig  --- 20:52 43.131 8/78 OSEM 7/30 1.0121
9 MacDonald, Ryan --- 20:54 43.062 9/78 OSEM 8/30 1.1013
10 Hamilton, Peter --- 20:55 43.028 10/78 OSEM 9/30 1.0363
11 Morvan, Jacques  OBC 21:01 42.823 11/78 OVBM 1/11 1.0313
12 Aller, Brian --- 21:05 42.688 12/78 OVAM 2/16 1.0048
13 Hinz, Richard OBC 21:07 42.620 13/78 OVAM 3/16 1.0118
St-Amour, Pierre OBC 21:07 42.620 13/78 OVAM 3/16 1.0023
Y 15 Harris, Glenn OBC 21:12 42.453 15/78 OJUM 1/6 1.6236
Higgins, Bryan OBC 21:12 42.453 15/78 OSEM 10/30  
17 Hicks, Bob  OBC 21:17 42.287 17/78 OVBM 2/11 1.0094
Parkin, Brian OBC 21:17 42.287 17/78 OVAM 5/16 1.0023
Smith, Ed --- 21:17 42.287 17/78 OSEM 11/30 1.0000
20 Cheney, Jason --- 21:20 42.188 20/78 OSEM 12/30 0.9884
21 Lau, Michael OBC 21:21 42.155 21/78 OSEM 13/30 0.9930
22 Johns, Mike --- 21:23 42.089 22/78 OSEM 14/30 0.9791
23 Statchuk, Craig OBC 21:24 42.056 23/78 OVAM 6/16 0.9906
24 Griffiths, Chris OBC 21:33 41.763 24/78 OVBM 3/11  
25 Schuck, Peter  OBC 21:35 41.699 25/78 OVAM 7/16 1.0543
26 Moerman, Bram  OBC 21:38 41.602 26/78 OVBM 4/11 1.0280
27 Martignago, Mike OBC 21:40 41.538 27/78 OVAM 8/16 0.9907
28 Daniels, Phillip --- 21:43 41.443 28/78 OSEM 15/30  
29 Pehleman, Bob  --- 21:44 41.411 29/78 OVAM 9/16  
30 Buffa, Alex  OBC 21:50 41.221 30/78 OSEM 16/30 0.9505
31 Budd, Daniel OBC 21:57 41.002 31/78 OSEM 17/30 1.0770
32 Stewart, Ian OBC 22:00 40.909 32/78 OVAM 10/16 1.1328
33 Boileau, Greg OBC 22:01 40.878 33/78 OJUM 2/6 1.0159
34 Leach, Mike --- 22:06 40.724 34/78 OSEM 18/30 1.0136
Munden, David --- 22:06 40.724 34/78 OSEM 18/30 1.0529
Murray, Ken --- 22:06 40.724 34/78 OJUM 3/6 1.0274
37 Stewart, Rob OBC 22:08 40.663 37/78 OVAM 11/16 1.0741
38 Saidla, Karl --- 22:11 40.571 38/78 OJUM 4/6  
Y 39 Murray, Val OBC 22:18 40.359 39/78 OCAM 1/2 1.0409
40 Romkey, Gary OBC 22:31 39.970 40/78 OVBM 5/11 1.0337
Y 41 Bachman, Mike OBC 22:33 39.911 41/78 OVCM 1/2 1.0843
42 Arts, Michael --- 22:37 39.794 42/78 OJUM 5/6 0.9436
43 Ménard, Monique OBC 22:49 39.445 43/78 OSEF 1/5 0.9804
Revesz, Erika  OBC 22:49 39.445 43/78 OVAF 1/3 1.0695
45 Austen, Ian  OBC 22:55 39.273 45/78 OVAM 12/16 0.9235
46 Clarke, David OBC 23:10 38.849 46/78 U18M 1/1 1.0616
Humphreys, Les  OBC/ABC 23:10 38.849 46/78 OVBM 6/11 0.9554
48 Tamborine, Don --- 23:14 38.737 48/78 OVBM 7/11 1.0238
Wrack, Dave --- 23:14 38.737 48/78 OSEM 20/30  
50 Pritlove, James --- 23:21 38.544 50/78 OSEM 21/30 1.0194
51 Aller, Mo OBC 23:43 37.948 51/78 OVCM 2/2 0.9853
52 Hartry, Corey --- 23:46 37.868 52/78 OJUM 6/6 0.9937
53 Crevier, Grégoire  OBC 23:47 37.842 53/78 OVAM 13/16 1.2254
Delisle, Stephane --- 23:47 37.842 53/78 OSEM 22/30 1.0000
55 Montpetit, Stephane --- 23:55 37.631 55/78 OSEM 23/30 0.9959
56 Bilenkey, David OBC 23:56 37.604 56/78 OSEM 24/30 1.0727
57 Erskine, James --- 23:58 37.552 57/78 OSEM 25/30 1.1192
58 Davison, Peter OBC 24:03 37.422 58/78 OVBM 8/11 1.0167
59 Weiman, David --- 24:10 37.241 59/78 OSEM 26/30 0.9979
60 Moxley, Don OBC 24:11 37.216 60/78 OVBM 9/11 0.9137
61 Soucy, Dominic --- 24:25 36.860 61/78 OSEM 27/30 1.0950
62 Polischuk, Susan --- 24:28 36.785 62/78 OSEF 2/5 1.0415
63 Ajersch, Mary  OBC 24:39 36.511 63/78 OVBF 1/2 1.0855
64 James, Peter OBC 24:41 36.462 64/78 OVAM 14/16 0.9859
65 Dawson, Michael OBC 24:50 36.242 65/78 OCAM 2/2  
66 Lashley, Steve --- 24:57 36.072 66/78 OVAM 15/16  
Miskell, Christine --- 24:57 36.072 66/78 OSEF 3/5  
68 Chen, Jonathan --- 25:19 35.550 68/78 OSEM 28/30 1.0666
69 McInnis, Celia  OBC 25:21 35.503 69/78 OVAF 2/3 0.9420
70 FitzGerald, Dennis ABC 25:24 35.433 70/78 OVBM 10/11  
71 Pepper, Anne --- 25:25 35.410 71/78 OSEF 4/5  
Wennerwald, Henning OBC 25:25 35.410 71/78 OVBM 11/11  
73 Girouard, Marcie --- 26:15 34.286 73/78 OVAF 3/3 1.1435
74 Gray, Leona  --- 26:17 34.242 74/78 OVBF 2/2 1.0287
75 Melinz, Ursula --- 27:16 33.007 75/78 OSEF 5/5  
76 Anderson, Allan OBC DNF   76/78 OVAM 16/16  
Bence, John OBC DNF   76/78 OSEM 29/30  
Boudreau, Marc --- DNF   76/78 OSEM 29/30  
 
Average Speed of all of the above 75 finishes (1125km in 28:20:57):39.684
>>>Average of the Average Speeds for these 75 finishes39.915<<<
 

The number of data records shown above is 78
The server processing of your query took: 0 wallclock secs ( 0.15 usr + 0.00 sys = 0.15 CPU)

     


Apr 1 (Good Friday) Apr 14 Apr 21 Apr 28
May 3 May 5 May 10 May 12 (22km) May 15 (40km) May 17 May 19 May 24 May 24 (10km) May 26 (cancelled) May 29 (40km)
Jun 2 Jun 5 (38km) Jun 7 Jun 9 Jun 14 (40km) Jun 14 Jun 16 Jun 21 Jun 21 Jun 23 Jun 26 (40km/80km) Jun 28 (40km) Jun 28 Jun 29
Jul 5 Jul 6
  Jul 7  
Jul 10 (22km) Jul 12 Jul 13 Jul 14 Jul 19 Jul 20 Jul 21 Jul 24 (38km) Jul 26 Jul 27 Jul 28
Aug 2 Aug 3 Aug 9 Aug 10 Aug 11 Aug 14 (40km/80km) Aug 16 Aug 17 Aug 18 Aug 20 (22km) Aug 23 Aug 24 Aug 28 (38km) Aug 30 (Invitational) Aug 31
Sep 1 Sep 6 Sep 8 Sep 13 Sep 20 Sep 25 (40km)

OTT Rankings
Best       Best by category
WTT Rankings for OBC Members
5 Best 15km     5 Best 15km by category
OBC Member Best Three 15km Rankings
Overall     by category
OBC BAR Ranking
Overall     by category     Rider "Consistency-Graph"
ABC BAR Ranking
Overall     by category     Rider "Consistency-Graph"
Other years
TT Calculator All TT People All TT events
ABC Home VVV Home
CKAP GOLD MEDAL
Other Links

Please send your comments and suggestions to: Celia McInnis
Copyright © 1998-2011 Celia McInnis. All rights reserved. Links are welcomed.